Terminal Aerodrome Forecast
Issued by NWS Wilmington, OH

Home | Current Version | Previous Version | Text Only | Print | Product List | Glossary On
Versions: 1 2 3 4 5 6 7 8 9 10 11 12 13 14 15 16 17 18 19 20 21 22 23 24 25 26 27 28 29 30 31 32 33 34
000
FTUS41 KILN 202000 AAB
TAFCVG
TAF AMD
KCVG 202021Z 2020/2124 27008KT P6SM VCTS SCT040CB OVC250
     FM202030 29020G35KT 1/2SM TSRA BKN040CB OVC250
     FM202045 29010G18KT 3SM -TSRA BKN040CB OVC250
     FM202100 29010KT P6SM VCTS BKN040CB OVC250
     FM202200 24005KT P6SM SCT100 BKN250
     FM210700 22004KT P6SM VCTS BKN040CB
     FM211200 23007KT P6SM SCT040 BKN150
     FM211800 24008KT P6SM VCTS SCT050CB=

USA.gov is the U.S. government's official web portal to all federal, state and local government web resources and services.